SJX236 VHHH-RCTP
Flight info
| Callsign | SJX236 |
|---|---|
| Flight time | N/A |
| Altitude | 39000 |
| Route | DALOL V631 ENVAR M750 EXTRA/N0471F290 M750 TONGA TONGA1A |
| Aircraft | A359/H-SDE2E3GHIJ3J4J5LM1ORWXY/LB1D1 |
Departure
| Time | 2026-05-07 00:17 |
|---|---|
| Airport | Hong Kong International Airport (VHHH) |
Arrival
| Time | N/A |
|---|---|
| Airport | Taiwan Taoyuan International Airport (RCTP) |
| Time | Latitude | Longitude | Altitude | Speed | Heading |
|---|---|---|---|---|---|
| 2026-05-07 00:10 | 22.31141 | 113.91143 | 43 ft | 0 kts | 71° |
| 2026-05-07 00:11 | 22.31136 | 113.91127 | 42 ft | 3 kts | 71° |
| 2026-05-07 00:12 | 22.31129 | 113.91107 | 42 ft | 3 kts | 71° |
| 2026-05-07 00:12 | 22.31125 | 113.91093 | 39 ft | 2 kts | 71° |
| 2026-05-07 00:12 | 22.31118 | 113.91074 | 40 ft | 3 kts | 46° |
| 2026-05-07 00:12 | 22.31112 | 113.91067 | 38 ft | 3 kts | 24° |
| 2026-05-07 00:13 | 22.31097 | 113.91061 | 40 ft | 3 kts | 358° |
| 2026-05-07 00:13 | 22.31081 | 113.91063 | 42 ft | 0 kts | 347° |
| 2026-05-07 00:14 | 22.31089 | 113.91060 | 41 ft | 4 kts | 340° |
| 2026-05-07 00:14 | 22.31144 | 113.91038 | 43 ft | 12 kts | 340° |
| 2026-05-07 00:14 | 22.31247 | 113.90996 | 43 ft | 17 kts | 330° |
| 2026-05-07 00:14 | 22.31257 | 113.90870 | 43 ft | 20 kts | 251° |
| 2026-05-07 00:15 | 22.31205 | 113.90711 | 43 ft | 25 kts | 251° |
| 2026-05-07 00:15 | 22.31151 | 113.90544 | 43 ft | 25 kts | 251° |
| 2026-05-07 00:15 | 22.31094 | 113.90368 | 43 ft | 23 kts | 251° |
| 2026-05-07 00:15 | 22.31041 | 113.90204 | 43 ft | 25 kts | 251° |
| 2026-05-07 00:16 | 22.30982 | 113.90022 | 43 ft | 26 kts | 251° |
| 2026-05-07 00:16 | 22.31020 | 113.89879 | 43 ft | 21 kts | 327° |
| 2026-05-07 00:16 | 22.31129 | 113.89897 | 42 ft | 15 kts | 76° |
| 2026-05-07 00:16 | 22.31159 | 113.89984 | 43 ft | 25 kts | 71° |
| 2026-05-07 00:17 | 22.31291 | 113.90397 | 40 ft | 91 kts | 71° |
| 2026-05-07 00:17 | 22.31564 | 113.91249 | 45 ft | 146 kts | 71° |
| 2026-05-07 00:17 | 22.31938 | 113.92410 | 354 ft | 170 kts | 72° |
| 2026-05-07 00:17 | 22.32321 | 113.93598 | 1108 ft | 168 kts | 72° |
| 2026-05-07 00:18 | 22.32723 | 113.94852 | 1528 ft | 187 kts | 72° |
| 2026-05-07 00:18 | 22.33168 | 113.96252 | 1909 ft | 203 kts | 73° |
| 2026-05-07 00:18 | 22.33518 | 113.97773 | 2431 ft | 214 kts | 81° |
| 2026-05-07 00:18 | 22.33786 | 113.99374 | 3068 ft | 219 kts | 82° |
| 2026-05-07 00:19 | 22.34049 | 114.01017 | 3684 ft | 225 kts | 82° |
| 2026-05-07 00:19 | 22.34304 | 114.02676 | 4316 ft | 228 kts | 84° |
| 2026-05-07 00:19 | 22.34308 | 114.04408 | 4950 ft | 229 kts | 101° |
| 2026-05-07 00:19 | 22.33784 | 114.06024 | 5574 ft | 230 kts | 122° |
| 2026-05-07 00:20 | 22.32756 | 114.07339 | 6232 ft | 231 kts | 142° |
| 2026-05-07 00:20 | 22.31380 | 114.08274 | 6612 ft | 245 kts | 159° |
| 2026-05-07 00:20 | 22.29712 | 114.08754 | 7128 ft | 252 kts | 175° |
| 2026-05-07 00:20 | 22.27946 | 114.08810 | 7724 ft | 260 kts | 182° |
| 2026-05-07 00:21 | 22.26075 | 114.08763 | 8153 ft | 276 kts | 183° |
| 2026-05-07 00:21 | 22.24136 | 114.08717 | 8824 ft | 282 kts | 183° |
| 2026-05-07 00:21 | 22.22161 | 114.08683 | 9552 ft | 286 kts | 183° |
| 2026-05-07 00:21 | 22.20155 | 114.08656 | 10220 ft | 292 kts | 183° |
| 2026-05-07 00:22 | 22.18060 | 114.08750 | 10525 ft | 313 kts | 173° |
| 2026-05-07 00:22 | 22.15980 | 114.09669 | 10759 ft | 338 kts | 146° |
| 2026-05-07 00:22 | 22.14358 | 114.11597 | 11051 ft | 358 kts | 121° |
| 2026-05-07 00:22 | 22.13235 | 114.14028 | 11556 ft | 365 kts | 116° |
| 2026-05-07 00:23 | 22.12160 | 114.16526 | 12159 ft | 369 kts | 117° |
| 2026-05-07 00:23 | 22.11070 | 114.18972 | 12765 ft | 373 kts | 117° |
| 2026-05-07 00:23 | 22.09965 | 114.21379 | 13335 ft | 376 kts | 118° |
| 2026-05-07 00:23 | 22.08782 | 114.23905 | 13931 ft | 379 kts | 119° |
| 2026-05-07 00:24 | 22.07328 | 114.26270 | 14421 ft | 380 kts | 134° |
| 2026-05-07 00:24 | 22.05342 | 114.28139 | 14937 ft | 380 kts | 145° |
| 2026-05-07 00:24 | 22.03197 | 114.29830 | 15435 ft | 384 kts | 146° |
| 2026-05-07 00:24 | 22.01019 | 114.31522 | 15924 ft | 388 kts | 146° |
| 2026-05-07 00:25 | 21.98825 | 114.33233 | 16416 ft | 391 kts | 146° |
| 2026-05-07 00:25 | 21.96614 | 114.34966 | 16893 ft | 395 kts | 146° |
| 2026-05-07 00:25 | 21.94380 | 114.36723 | 17363 ft | 399 kts | 146° |
| 2026-05-07 00:25 | 21.92127 | 114.38495 | 17853 ft | 403 kts | 146° |
| 2026-05-07 00:26 | 21.89857 | 114.40279 | 18312 ft | 406 kts | 146° |
| 2026-05-07 00:26 | 21.87579 | 114.42107 | 18721 ft | 410 kts | 143° |
| 2026-05-07 00:26 | 21.85553 | 114.44291 | 19127 ft | 416 kts | 129° |
| 2026-05-07 00:26 | 22.31140 | 113.91140 | 41 ft | 0 kts | 124° |
| 2026-05-07 00:27 | 22.31141 | 113.91143 | 44 ft | 0 kts | 71° |
| 2026-05-07 00:30 | 22.31140 | 113.91140 | 43 ft | 0 kts | 71° |
| 2026-05-07 00:31 | 22.31141 | 113.91143 | 44 ft | 0 kts | 71° |
| 2026-05-07 00:31 | 22.31140 | 113.91140 | 43 ft | 0 kts | 71° |